<?xml version="1.0" encoding="UTF-8" standalone="no" ?>
<gpx xmlns="http://www.topografix.com/GPX/1/1" xmlns:xsi="http://www.w3.org/2001/XMLSchema-instance" xsi:schemaLocation="http://www.topografix.com/GPX/1/1 http://www.topografix.com/GPX/1/1/gpx.xsd" version="1.1" creator="VisuGPX - https://www.visugpx.com">
  <metadata>
    <name>Monte Gozzi</name>
    <desc><![CDATA[départ localité; APPIETTO, chapelle San Chirgu]]></desc>
  </metadata>
  <wpt lat="42.01009" lon="8.76846">
    <ele>428</ele>
  </wpt>
  <trk>
    <name><![CDATA[Monte Gozzi_1]]></name>
    <trkseg>
      <trkpt lat="42.01009" lon="8.76846">
        <ele>428</ele>
        <time>2009-08-30T13:27:38Z</time>
      </trkpt>
      <trkpt lat="42.01012" lon="8.76859">
        <ele>428</ele>
        <time>2009-08-30T13:30:14Z</time>
      </trkpt>
      <trkpt lat="42.0102" lon="8.76867">
        <ele>428</ele>
        <time>2009-08-30T13:30:24Z</time>
      </trkpt>
      <trkpt lat="42.01023" lon="8.76881">
        <ele>428</ele>
        <time>2009-08-30T13:30:33Z</time>
      </trkpt>
      <trkpt lat="42.01029" lon="8.76891">
        <ele>428</ele>
        <time>2009-08-30T13:30:41Z</time>
      </trkpt>
      <trkpt lat="42.01034" lon="8.76904">
        <ele>428</ele>
        <time>2009-08-30T13:30:49Z</time>
      </trkpt>
      <trkpt lat="42.01029" lon="8.76916">
        <ele>428</ele>
        <time>2009-08-30T13:31:28Z</time>
      </trkpt>
      <trkpt lat="42.01035" lon="8.76927">
        <ele>428</ele>
        <time>2009-08-30T13:31:52Z</time>
      </trkpt>
      <trkpt lat="42.01042" lon="8.76936">
        <ele>428</ele>
        <time>2009-08-30T13:32:00Z</time>
      </trkpt>
      <trkpt lat="42.0105" lon="8.76946">
        <ele>428</ele>
        <time>2009-08-30T13:32:09Z</time>
      </trkpt>
      <trkpt lat="42.01057" lon="8.76956">
        <ele>428</ele>
        <time>2009-08-30T13:32:17Z</time>
      </trkpt>
      <trkpt lat="42.01062" lon="8.76968">
        <ele>428</ele>
        <time>2009-08-30T13:32:26Z</time>
      </trkpt>
      <trkpt lat="42.01069" lon="8.76979">
        <ele>435</ele>
        <time>2009-08-30T13:32:36Z</time>
      </trkpt>
      <trkpt lat="42.01074" lon="8.7699">
        <ele>435</ele>
        <time>2009-08-30T13:32:45Z</time>
      </trkpt>
      <trkpt lat="42.01079" lon="8.77002">
        <ele>435</ele>
        <time>2009-08-30T13:32:53Z</time>
      </trkpt>
      <trkpt lat="42.01084" lon="8.77014">
        <ele>435</ele>
        <time>2009-08-30T13:33:02Z</time>
      </trkpt>
      <trkpt lat="42.01086" lon="8.77028">
        <ele>435</ele>
        <time>2009-08-30T13:33:12Z</time>
      </trkpt>
      <trkpt lat="42.01086" lon="8.77042">
        <ele>435</ele>
        <time>2009-08-30T13:33:22Z</time>
      </trkpt>
      <trkpt lat="42.01091" lon="8.77055">
        <ele>440</ele>
        <time>2009-08-30T13:33:33Z</time>
      </trkpt>
      <trkpt lat="42.01097" lon="8.77067">
        <ele>440</ele>
        <time>2009-08-30T13:33:47Z</time>
      </trkpt>
      <trkpt lat="42.01105" lon="8.77076">
        <ele>447</ele>
        <time>2009-08-30T13:33:59Z</time>
      </trkpt>
      <trkpt lat="42.01113" lon="8.77084">
        <ele>447</ele>
        <time>2009-08-30T13:34:11Z</time>
      </trkpt>
      <trkpt lat="42.01122" lon="8.77093">
        <ele>447</ele>
        <time>2009-08-30T13:34:25Z</time>
      </trkpt>
      <trkpt lat="42.01131" lon="8.77098">
        <ele>447</ele>
        <time>2009-08-30T13:34:43Z</time>
      </trkpt>
      <trkpt lat="42.01137" lon="8.77109">
        <ele>460</ele>
        <time>2009-08-30T13:35:07Z</time>
      </trkpt>
      <trkpt lat="42.01143" lon="8.7712">
        <ele>460</ele>
        <time>2009-08-30T13:35:25Z</time>
      </trkpt>
      <trkpt lat="42.01147" lon="8.77132">
        <ele>460</ele>
        <time>2009-08-30T13:35:40Z</time>
      </trkpt>
      <trkpt lat="42.01151" lon="8.77144">
        <ele>460</ele>
        <time>2009-08-30T13:35:56Z</time>
      </trkpt>
      <trkpt lat="42.01158" lon="8.77155">
        <ele>468</ele>
        <time>2009-08-30T13:36:18Z</time>
      </trkpt>
      <trkpt lat="42.01163" lon="8.77166">
        <ele>473</ele>
        <time>2009-08-30T13:36:33Z</time>
      </trkpt>
      <trkpt lat="42.01165" lon="8.77179">
        <ele>473</ele>
        <time>2009-08-30T13:36:53Z</time>
      </trkpt>
      <trkpt lat="42.01163" lon="8.77191">
        <ele>473</ele>
        <time>2009-08-30T13:37:06Z</time>
      </trkpt>
      <trkpt lat="42.01161" lon="8.77205">
        <ele>479</ele>
        <time>2009-08-30T13:37:21Z</time>
      </trkpt>
      <trkpt lat="42.0116" lon="8.77218">
        <ele>479</ele>
        <time>2009-08-30T13:37:46Z</time>
      </trkpt>
      <trkpt lat="42.01159" lon="8.77232">
        <ele>479</ele>
        <time>2009-08-30T13:38:34Z</time>
      </trkpt>
      <trkpt lat="42.01157" lon="8.77244">
        <ele>479</ele>
        <time>2009-08-30T13:38:48Z</time>
      </trkpt>
      <trkpt lat="42.01152" lon="8.77256">
        <ele>490</ele>
        <time>2009-08-30T13:39:02Z</time>
      </trkpt>
      <trkpt lat="42.01151" lon="8.7727">
        <ele>490</ele>
        <time>2009-08-30T13:39:20Z</time>
      </trkpt>
      <trkpt lat="42.01149" lon="8.77283">
        <ele>495</ele>
        <time>2009-08-30T13:39:36Z</time>
      </trkpt>
      <trkpt lat="42.01149" lon="8.77297">
        <ele>495</ele>
        <time>2009-08-30T13:39:50Z</time>
      </trkpt>
      <trkpt lat="42.01151" lon="8.7731">
        <ele>495</ele>
        <time>2009-08-30T13:40:10Z</time>
      </trkpt>
      <trkpt lat="42.0115" lon="8.77324">
        <ele>501</ele>
        <time>2009-08-30T13:40:23Z</time>
      </trkpt>
      <trkpt lat="42.01151" lon="8.77337">
        <ele>506</ele>
        <time>2009-08-30T13:40:37Z</time>
      </trkpt>
      <trkpt lat="42.0115" lon="8.7735">
        <ele>506</ele>
        <time>2009-08-30T13:40:53Z</time>
      </trkpt>
      <trkpt lat="42.01149" lon="8.77365">
        <ele>506</ele>
        <time>2009-08-30T13:41:09Z</time>
      </trkpt>
      <trkpt lat="42.01147" lon="8.77378">
        <ele>513</ele>
        <time>2009-08-30T13:41:24Z</time>
      </trkpt>
      <trkpt lat="42.01149" lon="8.77392">
        <ele>513</ele>
        <time>2009-08-30T13:41:40Z</time>
      </trkpt>
      <trkpt lat="42.01145" lon="8.77404">
        <ele>513</ele>
        <time>2009-08-30T13:42:13Z</time>
      </trkpt>
      <trkpt lat="42.01144" lon="8.77418">
        <ele>513</ele>
        <time>2009-08-30T13:42:34Z</time>
      </trkpt>
      <trkpt lat="42.01141" lon="8.7743">
        <ele>521</ele>
        <time>2009-08-30T13:42:58Z</time>
      </trkpt>
      <trkpt lat="42.01135" lon="8.7744">
        <ele>521</ele>
        <time>2009-08-30T13:43:16Z</time>
      </trkpt>
      <trkpt lat="42.01131" lon="8.77453">
        <ele>521</ele>
        <time>2009-08-30T13:43:42Z</time>
      </trkpt>
      <trkpt lat="42.01137" lon="8.77465">
        <ele>535</ele>
        <time>2009-08-30T13:44:14Z</time>
      </trkpt>
      <trkpt lat="42.01135" lon="8.77478">
        <ele>540</ele>
        <time>2009-08-30T13:44:33Z</time>
      </trkpt>
      <trkpt lat="42.01135" lon="8.77491">
        <ele>540</ele>
        <time>2009-08-30T13:44:51Z</time>
      </trkpt>
      <trkpt lat="42.01133" lon="8.77504">
        <ele>540</ele>
        <time>2009-08-30T13:45:04Z</time>
      </trkpt>
      <trkpt lat="42.01128" lon="8.77517">
        <ele>540</ele>
        <time>2009-08-30T13:46:03Z</time>
      </trkpt>
      <trkpt lat="42.01125" lon="8.7753">
        <ele>540</ele>
        <time>2009-08-30T13:46:12Z</time>
      </trkpt>
      <trkpt lat="42.01128" lon="8.77543">
        <ele>540</ele>
        <time>2009-08-30T13:46:22Z</time>
      </trkpt>
      <trkpt lat="42.01131" lon="8.77555">
        <ele>540</ele>
        <time>2009-08-30T13:46:33Z</time>
      </trkpt>
      <trkpt lat="42.01135" lon="8.77568">
        <ele>540</ele>
        <time>2009-08-30T13:46:46Z</time>
      </trkpt>
      <trkpt lat="42.01133" lon="8.77581">
        <ele>546</ele>
        <time>2009-08-30T13:47:03Z</time>
      </trkpt>
      <trkpt lat="42.01141" lon="8.77589">
        <ele>546</ele>
        <time>2009-08-30T13:47:20Z</time>
      </trkpt>
      <trkpt lat="42.01143" lon="8.77603">
        <ele>546</ele>
        <time>2009-08-30T13:47:43Z</time>
      </trkpt>
      <trkpt lat="42.01148" lon="8.77615">
        <ele>554</ele>
        <time>2009-08-30T13:48:03Z</time>
      </trkpt>
      <trkpt lat="42.01153" lon="8.77627">
        <ele>561</ele>
        <time>2009-08-30T13:48:33Z</time>
      </trkpt>
      <trkpt lat="42.01162" lon="8.77633">
        <ele>561</ele>
        <time>2009-08-30T13:48:51Z</time>
      </trkpt>
      <trkpt lat="42.01157" lon="8.77645">
        <ele>561</ele>
        <time>2009-08-30T13:49:18Z</time>
      </trkpt>
      <trkpt lat="42.01155" lon="8.77659">
        <ele>567</ele>
        <time>2009-08-30T13:49:31Z</time>
      </trkpt>
      <trkpt lat="42.01157" lon="8.77672">
        <ele>567</ele>
        <time>2009-08-30T13:49:44Z</time>
      </trkpt>
      <trkpt lat="42.01156" lon="8.77686">
        <ele>567</ele>
        <time>2009-08-30T13:49:59Z</time>
      </trkpt>
      <trkpt lat="42.01154" lon="8.77699">
        <ele>567</ele>
        <time>2009-08-30T13:50:14Z</time>
      </trkpt>
      <trkpt lat="42.01156" lon="8.77712">
        <ele>572</ele>
        <time>2009-08-30T13:50:29Z</time>
      </trkpt>
      <trkpt lat="42.01153" lon="8.77725">
        <ele>572</ele>
        <time>2009-08-30T13:50:42Z</time>
      </trkpt>
      <trkpt lat="42.01149" lon="8.77739">
        <ele>572</ele>
        <time>2009-08-30T13:51:00Z</time>
      </trkpt>
      <trkpt lat="42.01149" lon="8.77752">
        <ele>581</ele>
        <time>2009-08-30T13:51:42Z</time>
      </trkpt>
      <trkpt lat="42.01148" lon="8.77765">
        <ele>581</ele>
        <time>2009-08-30T13:52:07Z</time>
      </trkpt>
      <trkpt lat="42.01144" lon="8.77778">
        <ele>587</ele>
        <time>2009-08-30T13:52:28Z</time>
      </trkpt>
      <trkpt lat="42.01147" lon="8.77791">
        <ele>587</ele>
        <time>2009-08-30T13:52:49Z</time>
      </trkpt>
      <trkpt lat="42.01149" lon="8.77804">
        <ele>587</ele>
        <time>2009-08-30T13:53:03Z</time>
      </trkpt>
      <trkpt lat="42.01151" lon="8.77818">
        <ele>587</ele>
        <time>2009-08-30T13:53:13Z</time>
      </trkpt>
      <trkpt lat="42.01153" lon="8.77832">
        <ele>587</ele>
        <time>2009-08-30T13:54:17Z</time>
      </trkpt>
      <trkpt lat="42.01153" lon="8.77846">
        <ele>587</ele>
        <time>2009-08-30T13:54:29Z</time>
      </trkpt>
      <trkpt lat="42.01159" lon="8.77857">
        <ele>595</ele>
        <time>2009-08-30T13:54:42Z</time>
      </trkpt>
      <trkpt lat="42.01161" lon="8.7787">
        <ele>595</ele>
        <time>2009-08-30T13:54:56Z</time>
      </trkpt>
      <trkpt lat="42.01162" lon="8.77883">
        <ele>603</ele>
        <time>2009-08-30T13:55:12Z</time>
      </trkpt>
      <trkpt lat="42.01158" lon="8.77896">
        <ele>603</ele>
        <time>2009-08-30T13:55:29Z</time>
      </trkpt>
      <trkpt lat="42.01159" lon="8.77909">
        <ele>603</ele>
        <time>2009-08-30T13:55:43Z</time>
      </trkpt>
      <trkpt lat="42.01161" lon="8.77923">
        <ele>610</ele>
        <time>2009-08-30T13:55:58Z</time>
      </trkpt>
      <trkpt lat="42.01163" lon="8.77936">
        <ele>610</ele>
        <time>2009-08-30T13:56:14Z</time>
      </trkpt>
      <trkpt lat="42.01161" lon="8.77949">
        <ele>610</ele>
        <time>2009-08-30T13:56:33Z</time>
      </trkpt>
      <trkpt lat="42.0116" lon="8.77962">
        <ele>610</ele>
        <time>2009-08-30T13:56:49Z</time>
      </trkpt>
      <trkpt lat="42.01163" lon="8.77975">
        <ele>616</ele>
        <time>2009-08-30T13:57:06Z</time>
      </trkpt>
      <trkpt lat="42.01157" lon="8.77986">
        <ele>616</ele>
        <time>2009-08-30T13:57:20Z</time>
      </trkpt>
      <trkpt lat="42.01154" lon="8.77999">
        <ele>616</ele>
        <time>2009-08-30T13:58:09Z</time>
      </trkpt>
      <trkpt lat="42.01149" lon="8.78011">
        <ele>621</ele>
        <time>2009-08-30T13:58:22Z</time>
      </trkpt>
      <trkpt lat="42.0115" lon="8.78024">
        <ele>621</ele>
        <time>2009-08-30T13:58:37Z</time>
      </trkpt>
      <trkpt lat="42.01149" lon="8.78038">
        <ele>627</ele>
        <time>2009-08-30T13:58:54Z</time>
      </trkpt>
      <trkpt lat="42.01141" lon="8.78047">
        <ele>627</ele>
        <time>2009-08-30T13:59:08Z</time>
      </trkpt>
      <trkpt lat="42.01133" lon="8.78056">
        <ele>627</ele>
        <time>2009-08-30T13:59:23Z</time>
      </trkpt>
      <trkpt lat="42.0114" lon="8.78065">
        <ele>627</ele>
        <time>2009-08-30T14:00:13Z</time>
      </trkpt>
      <trkpt lat="42.01143" lon="8.78077">
        <ele>627</ele>
        <time>2009-08-30T14:00:27Z</time>
      </trkpt>
      <trkpt lat="42.01142" lon="8.78091">
        <ele>634</ele>
        <time>2009-08-30T14:00:39Z</time>
      </trkpt>
      <trkpt lat="42.01137" lon="8.78103">
        <ele>634</ele>
        <time>2009-08-30T14:00:50Z</time>
      </trkpt>
      <trkpt lat="42.01134" lon="8.78116">
        <ele>634</ele>
        <time>2009-08-30T14:01:03Z</time>
      </trkpt>
      <trkpt lat="42.01129" lon="8.78127">
        <ele>634</ele>
        <time>2009-08-30T14:01:15Z</time>
      </trkpt>
      <trkpt lat="42.01129" lon="8.78141">
        <ele>634</ele>
        <time>2009-08-30T14:01:27Z</time>
      </trkpt>
      <trkpt lat="42.0113" lon="8.78154">
        <ele>634</ele>
        <time>2009-08-30T14:01:37Z</time>
      </trkpt>
      <trkpt lat="42.01128" lon="8.78168">
        <ele>634</ele>
        <time>2009-08-30T14:01:51Z</time>
      </trkpt>
      <trkpt lat="42.01125" lon="8.7818">
        <ele>641</ele>
        <time>2009-08-30T14:02:01Z</time>
      </trkpt>
      <trkpt lat="42.01129" lon="8.78193">
        <ele>641</ele>
        <time>2009-08-30T14:02:16Z</time>
      </trkpt>
      <trkpt lat="42.01135" lon="8.78205">
        <ele>641</ele>
        <time>2009-08-30T14:02:34Z</time>
      </trkpt>
      <trkpt lat="42.01138" lon="8.78217">
        <ele>647</ele>
        <time>2009-08-30T14:02:55Z</time>
      </trkpt>
      <trkpt lat="42.01142" lon="8.7823">
        <ele>647</ele>
        <time>2009-08-30T14:03:13Z</time>
      </trkpt>
      <trkpt lat="42.01147" lon="8.78242">
        <ele>654</ele>
        <time>2009-08-30T14:03:39Z</time>
      </trkpt>
      <trkpt lat="42.01149" lon="8.78255">
        <ele>662</ele>
        <time>2009-08-30T14:04:04Z</time>
      </trkpt>
      <trkpt lat="42.01158" lon="8.78259">
        <ele>654</ele>
        <time>2009-08-30T14:04:56Z</time>
      </trkpt>
      <trkpt lat="42.01156" lon="8.78272">
        <ele>662</ele>
        <time>2009-08-30T14:05:59Z</time>
      </trkpt>
      <trkpt lat="42.01158" lon="8.78286">
        <ele>668</ele>
        <time>2009-08-30T14:06:21Z</time>
      </trkpt>
      <trkpt lat="42.01168" lon="8.78291">
        <ele>668</ele>
        <time>2009-08-30T14:06:42Z</time>
      </trkpt>
      <trkpt lat="42.01176" lon="8.78297">
        <ele>674</ele>
        <time>2009-08-30T14:07:11Z</time>
      </trkpt>
      <trkpt lat="42.01178" lon="8.78311">
        <ele>674</ele>
        <time>2009-08-30T14:08:36Z</time>
      </trkpt>
      <trkpt lat="42.01182" lon="8.78323">
        <ele>674</ele>
        <time>2009-08-30T14:08:49Z</time>
      </trkpt>
      <trkpt lat="42.01182" lon="8.78337">
        <ele>683</ele>
        <time>2009-08-30T14:09:07Z</time>
      </trkpt>
      <trkpt lat="42.01182" lon="8.7835">
        <ele>683</ele>
        <time>2009-08-30T14:09:37Z</time>
      </trkpt>
      <trkpt lat="42.01178" lon="8.78363">
        <ele>683</ele>
        <time>2009-08-30T14:09:50Z</time>
      </trkpt>
      <trkpt lat="42.01176" lon="8.78376">
        <ele>683</ele>
        <time>2009-08-30T14:10:02Z</time>
      </trkpt>
      <trkpt lat="42.01173" lon="8.78389">
        <ele>683</ele>
        <time>2009-08-30T14:10:19Z</time>
      </trkpt>
      <trkpt lat="42.01168" lon="8.78401">
        <ele>683</ele>
        <time>2009-08-30T14:10:36Z</time>
      </trkpt>
      <trkpt lat="42.01161" lon="8.78412">
        <ele>688</ele>
        <time>2009-08-30T14:10:50Z</time>
      </trkpt>
      <trkpt lat="42.01155" lon="8.78423">
        <ele>688</ele>
        <time>2009-08-30T14:11:02Z</time>
      </trkpt>
      <trkpt lat="42.01153" lon="8.78437">
        <ele>688</ele>
        <time>2009-08-30T14:11:14Z</time>
      </trkpt>
      <trkpt lat="42.01149" lon="8.78449">
        <ele>688</ele>
        <time>2009-08-30T14:11:30Z</time>
      </trkpt>
      <trkpt lat="42.01139" lon="8.78451">
        <ele>688</ele>
        <time>2009-08-30T14:11:46Z</time>
      </trkpt>
      <trkpt lat="42.01129" lon="8.78455">
        <ele>688</ele>
        <time>2009-08-30T14:11:58Z</time>
      </trkpt>
      <trkpt lat="42.01122" lon="8.78465">
        <ele>694</ele>
        <time>2009-08-30T14:12:12Z</time>
      </trkpt>
      <trkpt lat="42.01115" lon="8.78475">
        <ele>694</ele>
        <time>2009-08-30T14:12:25Z</time>
      </trkpt>
      <trkpt lat="42.01107" lon="8.78484">
        <ele>694</ele>
        <time>2009-08-30T14:12:37Z</time>
      </trkpt>
      <trkpt lat="42.01101" lon="8.78495">
        <ele>694</ele>
        <time>2009-08-30T14:12:48Z</time>
      </trkpt>
      <trkpt lat="42.01096" lon="8.78507">
        <ele>694</ele>
        <time>2009-08-30T14:13:00Z</time>
      </trkpt>
      <trkpt lat="42.01092" lon="8.78521">
        <ele>694</ele>
        <time>2009-08-30T14:13:12Z</time>
      </trkpt>
      <trkpt lat="42.01091" lon="8.78534">
        <ele>694</ele>
        <time>2009-08-30T14:13:22Z</time>
      </trkpt>
      <trkpt lat="42.0109" lon="8.78548">
        <ele>694</ele>
        <time>2009-08-30T14:13:33Z</time>
      </trkpt>
      <trkpt lat="42.01089" lon="8.78561">
        <ele>694</ele>
        <time>2009-08-30T14:13:43Z</time>
      </trkpt>
      <trkpt lat="42.0109" lon="8.78575">
        <ele>694</ele>
        <time>2009-08-30T14:13:53Z</time>
      </trkpt>
      <trkpt lat="42.01091" lon="8.78588">
        <ele>694</ele>
        <time>2009-08-30T14:14:04Z</time>
      </trkpt>
      <trkpt lat="42.01089" lon="8.78603">
        <ele>694</ele>
        <time>2009-08-30T14:14:16Z</time>
      </trkpt>
      <trkpt lat="42.01085" lon="8.78615">
        <ele>694</ele>
        <time>2009-08-30T14:14:28Z</time>
      </trkpt>
      <trkpt lat="42.01083" lon="8.7863">
        <ele>694</ele>
        <time>2009-08-30T14:14:41Z</time>
      </trkpt>
      <trkpt lat="42.01082" lon="8.78643">
        <ele>694</ele>
        <time>2009-08-30T14:14:51Z</time>
      </trkpt>
      <trkpt lat="42.01082" lon="8.78657">
        <ele>694</ele>
        <time>2009-08-30T14:15:04Z</time>
      </trkpt>
      <trkpt lat="42.01082" lon="8.78672">
        <ele>694</ele>
        <time>2009-08-30T14:15:16Z</time>
      </trkpt>
      <trkpt lat="42.0108" lon="8.78686">
        <ele>694</ele>
        <time>2009-08-30T14:15:29Z</time>
      </trkpt>
      <trkpt lat="42.01077" lon="8.78699">
        <ele>694</ele>
        <time>2009-08-30T14:15:41Z</time>
      </trkpt>
      <trkpt lat="42.01077" lon="8.78712">
        <ele>694</ele>
        <time>2009-08-30T14:15:51Z</time>
      </trkpt>
      <trkpt lat="42.01074" lon="8.78726">
        <ele>694</ele>
        <time>2009-08-30T14:16:02Z</time>
      </trkpt>
      <trkpt lat="42.01073" lon="8.7874">
        <ele>694</ele>
        <time>2009-08-30T14:16:13Z</time>
      </trkpt>
      <trkpt lat="42.01073" lon="8.78755">
        <ele>694</ele>
        <time>2009-08-30T14:16:24Z</time>
      </trkpt>
      <trkpt lat="42.01074" lon="8.78768">
        <ele>694</ele>
        <time>2009-08-30T14:16:37Z</time>
      </trkpt>
      <trkpt lat="42.01074" lon="8.78781">
        <ele>694</ele>
        <time>2009-08-30T14:16:50Z</time>
      </trkpt>
      <trkpt lat="42.0107" lon="8.78795">
        <ele>694</ele>
        <time>2009-08-30T14:17:04Z</time>
      </trkpt>
      <trkpt lat="42.01067" lon="8.78808">
        <ele>694</ele>
        <time>2009-08-30T14:17:14Z</time>
      </trkpt>
      <trkpt lat="42.01065" lon="8.78821">
        <ele>694</ele>
        <time>2009-08-30T14:17:25Z</time>
      </trkpt>
      <trkpt lat="42.01064" lon="8.78834">
        <ele>694</ele>
        <time>2009-08-30T14:17:36Z</time>
      </trkpt>
      <trkpt lat="42.01061" lon="8.78848">
        <ele>694</ele>
        <time>2009-08-30T14:17:46Z</time>
      </trkpt>
      <trkpt lat="42.01056" lon="8.7886">
        <ele>694</ele>
        <time>2009-08-30T14:17:58Z</time>
      </trkpt>
      <trkpt lat="42.01051" lon="8.78871">
        <ele>694</ele>
        <time>2009-08-30T14:18:08Z</time>
      </trkpt>
      <trkpt lat="42.01048" lon="8.78885">
        <ele>694</ele>
        <time>2009-08-30T14:18:18Z</time>
      </trkpt>
      <trkpt lat="42.01046" lon="8.78897">
        <ele>694</ele>
        <time>2009-08-30T14:18:30Z</time>
      </trkpt>
      <trkpt lat="42.01042" lon="8.7891">
        <ele>694</ele>
        <time>2009-08-30T14:18:41Z</time>
      </trkpt>
      <trkpt lat="42.0104" lon="8.78924">
        <ele>694</ele>
        <time>2009-08-30T14:18:51Z</time>
      </trkpt>
      <trkpt lat="42.01043" lon="8.78937">
        <ele>694</ele>
        <time>2009-08-30T14:19:01Z</time>
      </trkpt>
      <trkpt lat="42.01044" lon="8.7895">
        <ele>694</ele>
        <time>2009-08-30T14:19:12Z</time>
      </trkpt>
      <trkpt lat="42.01046" lon="8.78964">
        <ele>694</ele>
        <time>2009-08-30T14:19:26Z</time>
      </trkpt>
      <trkpt lat="42.01053" lon="8.78975">
        <ele>694</ele>
        <time>2009-08-30T14:19:36Z</time>
      </trkpt>
      <trkpt lat="42.01054" lon="8.78988">
        <ele>694</ele>
        <time>2009-08-30T14:19:47Z</time>
      </trkpt>
      <trkpt lat="42.01054" lon="8.79002">
        <ele>694</ele>
        <time>2009-08-30T14:19:58Z</time>
      </trkpt>
      <trkpt lat="42.01053" lon="8.79015">
        <ele>694</ele>
        <time>2009-08-30T14:20:08Z</time>
      </trkpt>
      <trkpt lat="42.01053" lon="8.79029">
        <ele>694</ele>
        <time>2009-08-30T14:20:18Z</time>
      </trkpt>
      <trkpt lat="42.01054" lon="8.79043">
        <ele>694</ele>
        <time>2009-08-30T14:20:29Z</time>
      </trkpt>
      <trkpt lat="42.01053" lon="8.79056">
        <ele>687</ele>
        <time>2009-08-30T14:20:40Z</time>
      </trkpt>
      <trkpt lat="42.01047" lon="8.79068">
        <ele>687</ele>
        <time>2009-08-30T14:20:52Z</time>
      </trkpt>
      <trkpt lat="42.01046" lon="8.79082">
        <ele>687</ele>
        <time>2009-08-30T14:21:02Z</time>
      </trkpt>
      <trkpt lat="42.01046" lon="8.79095">
        <ele>687</ele>
        <time>2009-08-30T14:21:12Z</time>
      </trkpt>
      <trkpt lat="42.01041" lon="8.79108">
        <ele>687</ele>
        <time>2009-08-30T14:21:26Z</time>
      </trkpt>
      <trkpt lat="42.01037" lon="8.79121">
        <ele>687</ele>
        <time>2009-08-30T14:21:37Z</time>
      </trkpt>
      <trkpt lat="42.01035" lon="8.79135">
        <ele>687</ele>
        <time>2009-08-30T14:21:50Z</time>
      </trkpt>
      <trkpt lat="42.01034" lon="8.79149">
        <ele>687</ele>
        <time>2009-08-30T14:22:06Z</time>
      </trkpt>
      <trkpt lat="42.01031" lon="8.79161">
        <ele>687</ele>
        <time>2009-08-30T14:22:18Z</time>
      </trkpt>
      <trkpt lat="42.01027" lon="8.79174">
        <ele>687</ele>
        <time>2009-08-30T14:22:29Z</time>
      </trkpt>
      <trkpt lat="42.01024" lon="8.79188">
        <ele>687</ele>
        <time>2009-08-30T14:22:41Z</time>
      </trkpt>
      <trkpt lat="42.0102" lon="8.792">
        <ele>687</ele>
        <time>2009-08-30T14:22:51Z</time>
      </trkpt>
      <trkpt lat="42.01017" lon="8.79214">
        <ele>680</ele>
        <time>2009-08-30T14:23:03Z</time>
      </trkpt>
      <trkpt lat="42.01009" lon="8.79223">
        <ele>680</ele>
        <time>2009-08-30T14:23:15Z</time>
      </trkpt>
      <trkpt lat="42.01001" lon="8.79232">
        <ele>680</ele>
        <time>2009-08-30T14:23:27Z</time>
      </trkpt>
      <trkpt lat="42.00993" lon="8.79241">
        <ele>680</ele>
        <time>2009-08-30T14:23:37Z</time>
      </trkpt>
      <trkpt lat="42.00985" lon="8.79249">
        <ele>680</ele>
        <time>2009-08-30T14:23:48Z</time>
      </trkpt>
      <trkpt lat="42.00979" lon="8.79259">
        <ele>680</ele>
        <time>2009-08-30T14:23:57Z</time>
      </trkpt>
      <trkpt lat="42.00971" lon="8.79268">
        <ele>680</ele>
        <time>2009-08-30T14:24:09Z</time>
      </trkpt>
      <trkpt lat="42.00967" lon="8.79281">
        <ele>680</ele>
        <time>2009-08-30T14:24:22Z</time>
      </trkpt>
      <trkpt lat="42.0096" lon="8.79291">
        <ele>686</ele>
        <time>2009-08-30T14:24:33Z</time>
      </trkpt>
      <trkpt lat="42.0095" lon="8.79296">
        <ele>686</ele>
        <time>2009-08-30T14:24:50Z</time>
      </trkpt>
      <trkpt lat="42.0094" lon="8.79297">
        <ele>678</ele>
        <time>2009-08-30T14:25:04Z</time>
      </trkpt>
      <trkpt lat="42.0093" lon="8.79296">
        <ele>678</ele>
        <time>2009-08-30T14:25:12Z</time>
      </trkpt>
      <trkpt lat="42.0092" lon="8.793">
        <ele>678</ele>
        <time>2009-08-30T14:25:27Z</time>
      </trkpt>
      <trkpt lat="42.00913" lon="8.7931">
        <ele>678</ele>
        <time>2009-08-30T14:25:39Z</time>
      </trkpt>
      <trkpt lat="42.00908" lon="8.79321">
        <ele>678</ele>
        <time>2009-08-30T14:25:52Z</time>
      </trkpt>
      <trkpt lat="42.00904" lon="8.79334">
        <ele>678</ele>
        <time>2009-08-30T14:26:03Z</time>
      </trkpt>
      <trkpt lat="42.00897" lon="8.79345">
        <ele>684</ele>
        <time>2009-08-30T14:26:14Z</time>
      </trkpt>
      <trkpt lat="42.00888" lon="8.79353">
        <ele>684</ele>
        <time>2009-08-30T14:26:26Z</time>
      </trkpt>
      <trkpt lat="42.00882" lon="8.79364">
        <ele>684</ele>
        <time>2009-08-30T14:26:35Z</time>
      </trkpt>
      <trkpt lat="42.00873" lon="8.79373">
        <ele>684</ele>
        <time>2009-08-30T14:26:46Z</time>
      </trkpt>
      <trkpt lat="42.00863" lon="8.79377">
        <ele>684</ele>
        <time>2009-08-30T14:26:54Z</time>
      </trkpt>
      <trkpt lat="42.00853" lon="8.7938">
        <ele>684</ele>
        <time>2009-08-30T14:27:03Z</time>
      </trkpt>
      <trkpt lat="42.00845" lon="8.7939">
        <ele>684</ele>
        <time>2009-08-30T14:27:13Z</time>
      </trkpt>
      <trkpt lat="42.00838" lon="8.79399">
        <ele>684</ele>
        <time>2009-08-30T14:27:23Z</time>
      </trkpt>
      <trkpt lat="42.00831" lon="8.79408">
        <ele>684</ele>
        <time>2009-08-30T14:27:31Z</time>
      </trkpt>
      <trkpt lat="42.00824" lon="8.79418">
        <ele>684</ele>
        <time>2009-08-30T14:27:41Z</time>
      </trkpt>
      <trkpt lat="42.00816" lon="8.79428">
        <ele>684</ele>
        <time>2009-08-30T14:27:51Z</time>
      </trkpt>
      <trkpt lat="42.00808" lon="8.79436">
        <ele>684</ele>
        <time>2009-08-30T14:28:00Z</time>
      </trkpt>
      <trkpt lat="42.00802" lon="8.79447">
        <ele>684</ele>
        <time>2009-08-30T14:28:10Z</time>
      </trkpt>
      <trkpt lat="42.00792" lon="8.79454">
        <ele>679</ele>
        <time>2009-08-30T14:28:19Z</time>
      </trkpt>
      <trkpt lat="42.00784" lon="8.79463">
        <ele>679</ele>
        <time>2009-08-30T14:28:30Z</time>
      </trkpt>
      <trkpt lat="42.00776" lon="8.79471">
        <ele>679</ele>
        <time>2009-08-30T14:28:38Z</time>
      </trkpt>
      <trkpt lat="42.0077" lon="8.79482">
        <ele>679</ele>
        <time>2009-08-30T14:28:47Z</time>
      </trkpt>
      <trkpt lat="42.00762" lon="8.7949">
        <ele>679</ele>
        <time>2009-08-30T14:28:57Z</time>
      </trkpt>
      <trkpt lat="42.00757" lon="8.79502">
        <ele>679</ele>
        <time>2009-08-30T14:29:07Z</time>
      </trkpt>
      <trkpt lat="42.00751" lon="8.79513">
        <ele>679</ele>
        <time>2009-08-30T14:29:18Z</time>
      </trkpt>
      <trkpt lat="42.00744" lon="8.79523">
        <ele>679</ele>
        <time>2009-08-30T14:29:27Z</time>
      </trkpt>
      <trkpt lat="42.00737" lon="8.79532">
        <ele>679</ele>
        <time>2009-08-30T14:29:37Z</time>
      </trkpt>
      <trkpt lat="42.00729" lon="8.79543">
        <ele>679</ele>
        <time>2009-08-30T14:29:46Z</time>
      </trkpt>
      <trkpt lat="42.00723" lon="8.79555">
        <ele>679</ele>
        <time>2009-08-30T14:29:57Z</time>
      </trkpt>
      <trkpt lat="42.00714" lon="8.79562">
        <ele>679</ele>
        <time>2009-08-30T14:30:06Z</time>
      </trkpt>
      <trkpt lat="42.00705" lon="8.79569">
        <ele>679</ele>
        <time>2009-08-30T14:30:15Z</time>
      </trkpt>
      <trkpt lat="42.00697" lon="8.79577">
        <ele>679</ele>
        <time>2009-08-30T14:30:25Z</time>
      </trkpt>
      <trkpt lat="42.00689" lon="8.79586">
        <ele>685</ele>
        <time>2009-08-30T14:30:34Z</time>
      </trkpt>
      <trkpt lat="42.00681" lon="8.79594">
        <ele>685</ele>
        <time>2009-08-30T14:30:42Z</time>
      </trkpt>
      <trkpt lat="42.00674" lon="8.79605">
        <ele>685</ele>
        <time>2009-08-30T14:30:51Z</time>
      </trkpt>
      <trkpt lat="42.00665" lon="8.79613">
        <ele>685</ele>
        <time>2009-08-30T14:31:01Z</time>
      </trkpt>
      <trkpt lat="42.00656" lon="8.7962">
        <ele>685</ele>
        <time>2009-08-30T14:31:10Z</time>
      </trkpt>
      <trkpt lat="42.00647" lon="8.79624">
        <ele>685</ele>
        <time>2009-08-30T14:31:31Z</time>
      </trkpt>
      <trkpt lat="42.00637" lon="8.7962">
        <ele>685</ele>
        <time>2009-08-30T14:32:53Z</time>
      </trkpt>
      <trkpt lat="42.00628" lon="8.79614">
        <ele>685</ele>
        <time>2009-08-30T14:33:04Z</time>
      </trkpt>
      <trkpt lat="42.00619" lon="8.79607">
        <ele>692</ele>
        <time>2009-08-30T14:33:15Z</time>
      </trkpt>
      <trkpt lat="42.0061" lon="8.796">
        <ele>692</ele>
        <time>2009-08-30T14:33:28Z</time>
      </trkpt>
      <trkpt lat="42.006" lon="8.79598">
        <ele>698</ele>
        <time>2009-08-30T14:33:46Z</time>
      </trkpt>
      <trkpt lat="42.00591" lon="8.79594">
        <ele>698</ele>
        <time>2009-08-30T14:33:59Z</time>
      </trkpt>
      <trkpt lat="42.00583" lon="8.79585">
        <ele>698</ele>
        <time>2009-08-30T14:34:13Z</time>
      </trkpt>
      <trkpt lat="42.00579" lon="8.79574">
        <ele>698</ele>
        <time>2009-08-30T14:34:29Z</time>
      </trkpt>
      <trkpt lat="42.00575" lon="8.79561">
        <ele>698</ele>
        <time>2009-08-30T14:34:39Z</time>
      </trkpt>
      <trkpt lat="42.00571" lon="8.79549">
        <ele>698</ele>
        <time>2009-08-30T14:34:49Z</time>
      </trkpt>
      <trkpt lat="42.00562" lon="8.79541">
        <ele>698</ele>
        <time>2009-08-30T14:34:59Z</time>
      </trkpt>
      <trkpt lat="42.00553" lon="8.79532">
        <ele>698</ele>
        <time>2009-08-30T14:35:11Z</time>
      </trkpt>
      <trkpt lat="42.00543" lon="8.79528">
        <ele>698</ele>
        <time>2009-08-30T14:35:24Z</time>
      </trkpt>
      <trkpt lat="42.00534" lon="8.79524">
        <ele>698</ele>
        <time>2009-08-30T14:35:32Z</time>
      </trkpt>
      <trkpt lat="42.00526" lon="8.79515">
        <ele>704</ele>
        <time>2009-08-30T14:35:58Z</time>
      </trkpt>
      <trkpt lat="42.00518" lon="8.79507">
        <ele>692</ele>
        <time>2009-08-30T14:37:12Z</time>
      </trkpt>
      <trkpt lat="42.00509" lon="8.79511">
        <ele>692</ele>
        <time>2009-08-30T14:37:30Z</time>
      </trkpt>
      <trkpt lat="42.005" lon="8.79516">
        <ele>705</ele>
        <time>2009-08-30T14:38:06Z</time>
      </trkpt>
      <trkpt lat="42.00495" lon="8.79505">
        <ele>699</ele>
        <time>2009-08-30T14:39:06Z</time>
      </trkpt>
      <trkpt lat="42.00502" lon="8.79495">
        <ele>699</ele>
        <time>2009-08-30T14:39:18Z</time>
      </trkpt>
      <trkpt lat="42.00501" lon="8.79481">
        <ele>699</ele>
        <time>2009-08-30T14:39:29Z</time>
      </trkpt>
      <trkpt lat="42.00508" lon="8.79472">
        <ele>711</ele>
        <time>2009-08-30T14:39:53Z</time>
      </trkpt>
      <trkpt lat="42.00506" lon="8.79459">
        <ele>711</ele>
        <time>2009-08-30T14:40:04Z</time>
      </trkpt>
      <trkpt lat="42.00502" lon="8.79447">
        <ele>711</ele>
        <time>2009-08-30T14:40:16Z</time>
      </trkpt>
      <trkpt lat="42.00492" lon="8.79444">
        <ele>711</ele>
        <time>2009-08-30T14:40:24Z</time>
      </trkpt>
      <trkpt lat="42.00489" lon="8.79431">
        <ele>711</ele>
        <time>2009-08-30T14:40:46Z</time>
      </trkpt>
      <trkpt lat="42.0049" lon="8.79417">
        <ele>711</ele>
        <time>2009-08-30T14:41:19Z</time>
      </trkpt>
    </trkseg>
  </trk>
</gpx>